sensor_id;sensor_type;location;lat;lon;timestamp;pressure;altitude;pressure_sealevel;temperature;humidity
71476;BME280;59286;59.274;17.974;2023-03-24T00:01:21;99128.13;;;5.12;88.10
71476;BME280;59286;59.274;17.974;2023-03-24T00:03:46;99135.91;;;5.12;88.39
71476;BME280;59286;59.274;17.974;2023-03-24T00:06:16;99136.03;;;5.07;89.03
71476;BME280;59286;59.274;17.974;2023-03-24T00:08:43;99140.63;;;5.10;89.57
71476;BME280;59286;59.274;17.974;2023-03-24T00:11:12;99140.53;;;5.15;89.24
71476;BME280;59286;59.274;17.974;2023-03-24T00:13:39;99134.44;;;5.20;89.31
71476;BME280;59286;59.274;17.974;2023-03-24T00:16:10;99143.38;;;5.27;89.30
71476;BME280;59286;59.274;17.974;2023-03-24T00:18:37;99149.09;;;5.38;89.26
71476;BME280;59286;59.274;17.974;2023-03-24T00:21:04;99150.81;;;5.42;88.75
71476;BME280;59286;59.274;17.974;2023-03-24T00:23:31;99156.97;;;5.46;89.03
71476;BME280;59286;59.274;17.974;2023-03-24T00:26:06;99143.06;;;5.51;88.69
71476;BME280;59286;59.274;17.974;2023-03-24T00:28:34;99148.63;;;5.58;88.09
71476;BME280;59286;59.274;17.974;2023-03-24T00:31:02;99138.06;;;5.54;88.28
71476;BME280;59286;59.274;17.974;2023-03-24T00:33:29;99150.63;;;5.61;88.04
71476;BME280;59286;59.274;17.974;2023-03-24T00:36:00;99152.03;;;5.67;88.12
71476;BME280;59286;59.274;17.974;2023-03-24T00:38:26;99154.94;;;5.65;88.11
71476;BME280;59286;59.274;17.974;2023-03-24T00:40:52;99161.25;;;5.73;88.31
71476;BME280;59286;59.274;17.974;2023-03-24T00:43:17;99155.88;;;5.69;88.12
71476;BME280;59286;59.274;17.974;2023-03-24T00:45:43;99162.97;;;5.77;88.30
71476;BME280;59286;59.274;17.974;2023-03-24T00:48:16;99157.00;;;5.77;88.20
71476;BME280;59286;59.274;17.974;2023-03-24T00:50:47;99155.09;;;5.69;88.40
71476;BME280;59286;59.274;17.974;2023-03-24T00:53:17;99164.31;;;5.75;88.16
71476;BME280;59286;59.274;17.974;2023-03-24T00:55:46;99163.91;;;5.81;87.97
71476;BME280;59286;59.274;17.974;2023-03-24T00:58:16;99167.75;;;5.84;88.01
71476;BME280;59286;59.274;17.974;2023-03-24T01:00:48;99164.13;;;5.85;87.40
71476;BME280;59286;59.274;17.974;2023-03-24T01:03:15;99159.09;;;5.88;87.45
71476;BME280;59286;59.274;17.974;2023-03-24T01:05:42;99164.16;;;5.94;87.14
71476;BME280;59286;59.274;17.974;2023-03-24T01:08:14;99172.72;;;5.94;87.25
71476;BME280;59286;59.274;17.974;2023-03-24T01:10:39;99151.59;;;5.87;87.04
71476;BME280;59286;59.274;17.974;2023-03-24T01:13:21;99170.00;;;5.99;86.80
71476;BME280;59286;59.274;17.974;2023-03-24T01:15:48;99164.50;;;6.01;86.52
71476;BME280;59286;59.274;17.974;2023-03-24T01:18:14;99158.72;;;6.04;86.86
71476;BME280;59286;59.274;17.974;2023-03-24T01:20:42;99161.31;;;6.04;86.71
71476;BME280;59286;59.274;17.974;2023-03-24T01:23:12;99156.88;;;6.04;86.72
71476;BME280;59286;59.274;17.974;2023-03-24T01:25:41;99155.16;;;6.00;86.73
71476;BME280;59286;59.274;17.974;2023-03-24T01:28:11;99156.09;;;6.04;86.63
71476;BME280;59286;59.274;17.974;2023-03-24T01:30:37;99157.91;;;5.95;86.51
71476;BME280;59286;59.274;17.974;2023-03-24T01:33:03;99156.63;;;5.83;87.27
71476;BME280;59286;59.274;17.974;2023-03-24T01:35:30;99161.91;;;5.78;87.42
71476;BME280;59286;59.274;17.974;2023-03-24T01:37:57;99151.63;;;5.73;87.96
71476;BME280;59286;59.274;17.974;2023-03-24T01:40:25;99153.63;;;5.76;88.00
71476;BME280;59286;59.274;17.974;2023-03-24T01:42:51;99145.34;;;5.74;88.23
71476;BME280;59286;59.274;17.974;2023-03-24T01:48:11;99146.28;;;5.78;88.13
71476;BME280;59286;59.274;17.974;2023-03-24T01:50:38;99145.97;;;5.71;88.03
71476;BME280;59286;59.274;17.974;2023-03-24T01:53:04;99153.41;;;5.64;88.42
71476;BME280;59286;59.274;17.974;2023-03-24T01:55:30;99147.41;;;5.55;89.25
71476;BME280;59286;59.274;17.974;2023-03-24T01:57:59;99149.22;;;5.55;89.65
71476;BME280;59286;59.274;17.974;2023-03-24T02:00:26;99149.88;;;5.60;89.85
71476;BME280;59286;59.274;17.974;2023-03-24T02:02:56;99151.28;;;5.66;89.76
71476;BME280;59286;59.274;17.974;2023-03-24T02:05:27;99141.47;;;5.63;89.83
71476;BME280;59286;59.274;17.974;2023-03-24T02:10:29;99152.72;;;5.72;89.54
71476;BME280;59286;59.274;17.974;2023-03-24T02:12:55;99151.63;;;5.73;89.29
71476;BME280;59286;59.274;17.974;2023-03-24T02:15:21;99155.16;;;5.77;89.40
71476;BME280;59286;59.274;17.974;2023-03-24T02:26:39;99121.91;;;5.66;88.63
71476;BME280;59286;59.274;17.974;2023-03-24T02:34:55;99111.25;;;5.23;90.27
71476;BME280;59286;59.274;17.974;2023-03-24T02:37:42;99117.06;;;5.20;90.66
71476;BME280;59286;59.274;17.974;2023-03-24T02:40:22;99118.03;;;5.11;90.83
71476;BME280;59286;59.274;17.974;2023-03-24T02:43:00;99113.72;;;5.06;91.21
71476;BME280;59286;59.274;17.974;2023-03-24T02:48:14;99116.16;;;4.89;92.40
71476;BME280;59286;59.274;17.974;2023-03-24T02:50:47;99126.06;;;4.87;92.81
71476;BME280;59286;59.274;17.974;2023-03-24T02:53:25;99121.84;;;4.91;92.88
71476;BME280;59286;59.274;17.974;2023-03-24T02:56:00;99123.88;;;4.94;93.09
71476;BME280;59286;59.274;17.974;2023-03-24T02:58:41;99110.50;;;4.87;92.42
71476;BME280;59286;59.274;17.974;2023-03-24T03:01:14;99124.06;;;4.84;92.80
71476;BME280;59286;59.274;17.974;2023-03-24T03:03:47;99132.63;;;4.84;92.92
71476;BME280;59286;59.274;17.974;2023-03-24T03:06:20;99135.97;;;4.85;93.09
71476;BME280;59286;59.274;17.974;2023-03-24T03:08:49;99128.78;;;4.82;93.41
71476;BME280;59286;59.274;17.974;2023-03-24T03:11:15;99120.69;;;4.83;93.54
71476;BME280;59286;59.274;17.974;2023-03-24T03:13:58;99114.84;;;4.78;93.73
71476;BME280;59286;59.274;17.974;2023-03-24T03:19:08;99118.53;;;4.77;93.78
71476;BME280;59286;59.274;17.974;2023-03-24T03:21:40;99107.28;;;4.68;93.46
71476;BME280;59286;59.274;17.974;2023-03-24T03:24:13;99107.97;;;4.60;93.96
71476;BME280;59286;59.274;17.974;2023-03-24T03:26:41;99118.16;;;4.56;93.82
71476;BME280;59286;59.274;17.974;2023-03-24T03:29:18;99129.41;;;4.52;94.30
71476;BME280;59286;59.274;17.974;2023-03-24T03:31:51;99116.66;;;4.42;94.39
71476;BME280;59286;59.274;17.974;2023-03-24T03:34:32;99117.81;;;4.36;94.83
71476;BME280;59286;59.274;17.974;2023-03-24T03:37:17;99117.81;;;4.36;95.22
71476;BME280;59286;59.274;17.974;2023-03-24T03:39:50;99112.97;;;4.29;95.19
71476;BME280;59286;59.274;17.974;2023-03-24T03:42:19;99122.69;;;4.24;96.06
71476;BME280;59286;59.274;17.974;2023-03-24T03:44:44;99130.47;;;4.24;96.11
71476;BME280;59286;59.274;17.974;2023-03-24T03:47:10;99136.34;;;4.16;96.29
71476;BME280;59286;59.274;17.974;2023-03-24T03:49:36;99135.66;;;4.24;96.86
71476;BME280;59286;59.274;17.974;2023-03-24T03:52:01;99144.88;;;4.30;96.78
71476;BME280;59286;59.274;17.974;2023-03-24T03:54:28;99148.44;;;4.34;96.81
71476;BME280;59286;59.274;17.974;2023-03-24T03:56:55;99149.78;;;4.45;96.46
71476;BME280;59286;59.274;17.974;2023-03-24T03:59:32;99141.91;;;4.50;96.21
71476;BME280;59286;59.274;17.974;2023-03-24T04:02:22;99146.91;;;4.60;96.19
71476;BME280;59286;59.274;17.974;2023-03-24T04:05:54;99158.91;;;4.69;95.70
71476;BME280;59286;59.274;17.974;2023-03-24T04:13:53;99159.16;;;4.81;94.92
71476;BME280;59286;59.274;17.974;2023-03-24T04:24:55;99157.78;;;4.98;94.36
71476;BME280;59286;59.274;17.974;2023-03-24T04:27:46;99157.38;;;5.04;94.19
71476;BME280;59286;59.274;17.974;2023-03-24T04:30:24;99157.09;;;5.06;94.07
71476;BME280;59286;59.274;17.974;2023-03-24T04:33:16;99144.41;;;5.04;93.72
71476;BME280;59286;59.274;17.974;2023-03-24T04:35:52;99143.06;;;5.07;93.86
71476;BME280;59286;59.274;17.974;2023-03-24T04:38:23;99144.28;;;5.09;93.55
71476;BME280;59286;59.274;17.974;2023-03-24T04:40:54;99148.44;;;5.10;93.41
71476;BME280;59286;59.274;17.974;2023-03-24T04:43:22;99143.53;;;5.09;93.04
71476;BME280;59286;59.274;17.974;2023-03-24T04:45:51;99136.41;;;5.14;93.17
71476;BME280;59286;59.274;17.974;2023-03-24T04:48:22;99136.88;;;5.16;93.05
71476;BME280;59286;59.274;17.974;2023-03-24T04:50:56;99141.47;;;5.19;92.68
71476;BME280;59286;59.274;17.974;2023-03-24T04:53:22;99150.69;;;5.25;92.57
71476;BME280;59286;59.274;17.974;2023-03-24T04:58:13;99140.19;;;5.30;92.25
71476;BME280;59286;59.274;17.974;2023-03-24T05:00:39;99139.59;;;5.33;92.04
71476;BME280;59286;59.274;17.974;2023-03-24T05:03:06;99134.94;;;5.44;91.70
71476;BME280;59286;59.274;17.974;2023-03-24T05:05:31;99141.38;;;5.46;91.67
71476;BME280;59286;59.274;17.974;2023-03-24T05:07:57;99123.47;;;5.45;91.11
71476;BME280;59286;59.274;17.974;2023-03-24T05:10:22;99126.78;;;5.37;91.07
71476;BME280;59286;59.274;17.974;2023-03-24T05:12:48;99122.25;;;5.20;91.38
71476;BME280;59286;59.274;17.974;2023-03-24T05:15:14;99129.09;;;5.16;91.66
71476;BME280;59286;59.274;17.974;2023-03-24T05:17:39;99121.69;;;5.10;92.13
71476;BME280;59286;59.274;17.974;2023-03-24T05:20:05;99122.75;;;5.09;92.15
71476;BME280;59286;59.274;17.974;2023-03-24T05:22:35;99121.97;;;5.08;92.38
71476;BME280;59286;59.274;17.974;2023-03-24T05:25:01;99134.00;;;5.04;92.55
71476;BME280;59286;59.274;17.974;2023-03-24T05:27:26;99132.38;;;5.08;92.69
71476;BME280;59286;59.274;17.974;2023-03-24T05:29:51;99141.69;;;5.09;92.81
71476;BME280;59286;59.274;17.974;2023-03-24T05:32:17;99138.44;;;5.04;92.53
71476;BME280;59286;59.274;17.974;2023-03-24T05:34:42;99131.53;;;4.99;92.70
71476;BME280;59286;59.274;17.974;2023-03-24T05:37:07;99123.66;;;4.90;93.11
71476;BME280;59286;59.274;17.974;2023-03-24T05:39:36;99124.44;;;4.91;93.49
71476;BME280;59286;59.274;17.974;2023-03-24T05:42:01;99127.13;;;5.00;93.49
71476;BME280;59286;59.274;17.974;2023-03-24T05:44:27;99119.38;;;5.08;93.54
71476;BME280;59286;59.274;17.974;2023-03-24T05:46:52;99117.44;;;5.14;93.34
71476;BME280;59286;59.274;17.974;2023-03-24T05:49:17;99117.41;;;5.27;92.60
71476;BME280;59286;59.274;17.974;2023-03-24T05:51:42;99115.28;;;5.29;92.49
71476;BME280;59286;59.274;17.974;2023-03-24T05:54:08;99109.81;;;5.39;92.02
71476;BME280;59286;59.274;17.974;2023-03-24T05:56:33;99102.50;;;5.41;92.09
71476;BME280;59286;59.274;17.974;2023-03-24T05:58:58;99108.81;;;5.49;91.74
71476;BME280;59286;59.274;17.974;2023-03-24T06:01:24;99102.31;;;5.60;90.92
71476;BME280;59286;59.274;17.974;2023-03-24T06:03:49;99102.00;;;5.61;91.15
71476;BME280;59286;59.274;17.974;2023-03-24T06:06:14;99099.63;;;5.73;91.10
71476;BME280;59286;59.274;17.974;2023-03-24T06:08:41;99111.81;;;5.86;90.45
71476;BME280;59286;59.274;17.974;2023-03-24T06:11:09;99110.50;;;5.98;89.99
71476;BME280;59286;59.274;17.974;2023-03-24T06:13:35;99105.78;;;6.08;89.76
71476;BME280;59286;59.274;17.974;2023-03-24T06:16:00;99097.06;;;6.04;89.47
71476;BME280;59286;59.274;17.974;2023-03-24T06:18:25;99109.63;;;6.19;89.15
71476;BME280;59286;59.274;17.974;2023-03-24T06:20:54;99121.13;;;6.18;88.65
71476;BME280;59286;59.274;17.974;2023-03-24T06:23:23;99113.56;;;6.08;89.15
71476;BME280;59286;59.274;17.974;2023-03-24T06:25:53;99114.34;;;6.09;89.08
71476;BME280;59286;59.274;17.974;2023-03-24T06:28:20;99125.38;;;6.06;89.50
71476;BME280;59286;59.274;17.974;2023-03-24T06:30:46;99126.88;;;6.07;89.66
71476;BME280;59286;59.274;17.974;2023-03-24T06:33:13;99125.00;;;5.99;89.78
71476;BME280;59286;59.274;17.974;2023-03-24T06:35:39;99125.47;;;6.01;90.04
71476;BME280;59286;59.274;17.974;2023-03-24T06:38:05;99120.72;;;5.94;89.61
71476;BME280;59286;59.274;17.974;2023-03-24T06:40:31;99120.97;;;5.84;90.18
71476;BME280;59286;59.274;17.974;2023-03-24T06:42:57;99120.78;;;5.80;90.29
71476;BME280;59286;59.274;17.974;2023-03-24T06:45:23;99118.78;;;5.77;90.55
71476;BME280;59286;59.274;17.974;2023-03-24T06:47:51;99125.16;;;5.94;90.22
71476;BME280;59286;59.274;17.974;2023-03-24T06:50:16;99113.81;;;5.89;90.31
71476;BME280;59286;59.274;17.974;2023-03-24T06:52:41;99113.56;;;6.00;90.03
71476;BME280;59286;59.274;17.974;2023-03-24T06:55:07;99112.22;;;6.11;89.69
71476;BME280;59286;59.274;17.974;2023-03-24T06:57:32;99109.19;;;6.17;88.87
71476;BME280;59286;59.274;17.974;2023-03-24T06:59:58;99114.88;;;6.28;89.33
71476;BME280;59286;59.274;17.974;2023-03-24T07:02:23;99116.75;;;6.36;88.24
71476;BME280;59286;59.274;17.974;2023-03-24T07:04:49;99111.72;;;6.48;88.45
71476;BME280;59286;59.274;17.974;2023-03-24T07:07:14;99120.00;;;6.58;87.58
71476;BME280;59286;59.274;17.974;2023-03-24T07:09:41;99114.66;;;6.63;87.77
71476;BME280;59286;59.274;17.974;2023-03-24T07:12:07;99104.72;;;6.82;87.24
71476;BME280;59286;59.274;17.974;2023-03-24T07:14:32;99112.72;;;6.86;86.31
71476;BME280;59286;59.274;17.974;2023-03-24T07:16:58;99122.81;;;6.88;85.48
71476;BME280;59286;59.274;17.974;2023-03-24T07:19:24;99117.72;;;6.82;86.08
71476;BME280;59286;59.274;17.974;2023-03-24T07:21:49;99110.09;;;6.86;85.74
71476;BME280;59286;59.274;17.974;2023-03-24T07:24:16;99121.13;;;6.83;86.08
71476;BME280;59286;59.274;17.974;2023-03-24T07:26:41;99111.75;;;6.73;86.18
71476;BME280;59286;59.274;17.974;2023-03-24T07:29:07;99113.44;;;6.61;85.31
71476;BME280;59286;59.274;17.974;2023-03-24T07:31:32;99122.59;;;6.50;86.47
71476;BME280;59286;59.274;17.974;2023-03-24T07:34:02;99118.00;;;6.47;87.13
71476;BME280;59286;59.274;17.974;2023-03-24T07:36:27;99127.66;;;6.55;86.61
71476;BME280;59286;59.274;17.974;2023-03-24T07:38:53;99123.38;;;6.59;86.58
71476;BME280;59286;59.274;17.974;2023-03-24T07:41:18;99118.47;;;6.66;85.82
71476;BME280;59286;59.274;17.974;2023-03-24T07:43:43;99110.66;;;6.66;86.39
71476;BME280;59286;59.274;17.974;2023-03-24T07:46:09;99118.50;;;6.74;85.49
71476;BME280;59286;59.274;17.974;2023-03-24T07:48:34;99118.94;;;6.68;85.95
71476;BME280;59286;59.274;17.974;2023-03-24T07:51:00;99112.38;;;6.62;85.91
71476;BME280;59286;59.274;17.974;2023-03-24T07:53:25;99118.34;;;6.71;86.05
71476;BME280;59286;59.274;17.974;2023-03-24T07:55:50;99112.06;;;6.63;85.97
71476;BME280;59286;59.274;17.974;2023-03-24T07:58:16;99110.53;;;6.62;85.70
71476;BME280;59286;59.274;17.974;2023-03-24T08:00:41;99109.16;;;6.65;85.96
71476;BME280;59286;59.274;17.974;2023-03-24T08:03:10;99115.75;;;6.79;86.12
71476;BME280;59286;59.274;17.974;2023-03-24T08:05:38;99102.13;;;6.91;85.36
71476;BME280;59286;59.274;17.974;2023-03-24T08:08:04;99104.59;;;7.13;85.06
71476;BME280;59286;59.274;17.974;2023-03-24T08:10:30;99106.41;;;7.13;84.96
71476;BME280;59286;59.274;17.974;2023-03-24T08:12:57;99108.84;;;7.35;85.31
71476;BME280;59286;59.274;17.974;2023-03-24T08:15:24;99104.38;;;7.52;85.09
71476;BME280;59286;59.274;17.974;2023-03-24T08:17:50;99100.81;;;7.65;84.08
71476;BME280;59286;59.274;17.974;2023-03-24T08:20:16;99095.28;;;7.67;82.83
71476;BME280;59286;59.274;17.974;2023-03-24T08:22:45;99082.69;;;7.77;82.53
71476;BME280;59286;59.274;17.974;2023-03-24T08:25:15;99083.00;;;7.76;81.98
71476;BME280;59286;59.274;17.974;2023-03-24T08:27:41;99093.22;;;7.90;82.16
71476;BME280;59286;59.274;17.974;2023-03-24T08:30:10;99077.69;;;8.02;81.68
71476;BME280;59286;59.274;17.974;2023-03-24T08:32:42;99087.41;;;8.22;81.25
71476;BME280;59286;59.274;17.974;2023-03-24T08:35:10;99080.38;;;8.14;80.24
71476;BME280;59286;59.274;17.974;2023-03-24T08:37:36;99085.59;;;8.14;79.90
71476;BME280;59286;59.274;17.974;2023-03-24T08:40:02;99080.88;;;8.07;81.20
71476;BME280;59286;59.274;17.974;2023-03-24T08:42:36;99089.59;;;8.11;80.85
71476;BME280;59286;59.274;17.974;2023-03-24T08:45:01;99104.75;;;8.26;81.13
71476;BME280;59286;59.274;17.974;2023-03-24T08:47:28;99085.09;;;8.29;81.05
71476;BME280;59286;59.274;17.974;2023-03-24T08:49:55;99085.56;;;8.31;80.76
71476;BME280;59286;59.274;17.974;2023-03-24T08:52:24;99080.59;;;8.38;80.33
71476;BME280;59286;59.274;17.974;2023-03-24T08:54:50;99093.84;;;8.33;79.71
71476;BME280;59286;59.274;17.974;2023-03-24T08:57:16;99090.47;;;8.24;80.15
71476;BME280;59286;59.274;17.974;2023-03-24T08:59:42;99070.06;;;8.17;80.39
71476;BME280;59286;59.274;17.974;2023-03-24T09:02:10;99072.94;;;8.33;80.62
71476;BME280;59286;59.274;17.974;2023-03-24T09:04:35;99071.41;;;8.32;79.86
71476;BME280;59286;59.274;17.974;2023-03-24T09:07:01;99065.06;;;8.41;80.43
71476;BME280;59286;59.274;17.974;2023-03-24T09:09:26;99051.69;;;8.43;79.51
71476;BME280;59286;59.274;17.974;2023-03-24T09:11:54;99051.25;;;8.41;79.55
71476;BME280;59286;59.274;17.974;2023-03-24T09:14:19;99050.88;;;8.51;79.93
71476;BME280;59286;59.274;17.974;2023-03-24T09:16:47;99051.06;;;8.66;79.80
71476;BME280;59286;59.274;17.974;2023-03-24T09:19:13;99053.47;;;8.71;78.16
71476;BME280;59286;59.274;17.974;2023-03-24T09:21:38;99047.75;;;8.78;79.05
71476;BME280;59286;59.274;17.974;2023-03-24T09:24:06;99036.19;;;9.00;78.31
71476;BME280;59286;59.274;17.974;2023-03-24T09:26:31;99036.66;;;9.14;76.98
71476;BME280;59286;59.274;17.974;2023-03-24T09:28:58;99035.50;;;9.23;76.37
71476;BME280;59286;59.274;17.974;2023-03-24T09:31:23;99031.19;;;9.39;77.74
71476;BME280;59286;59.274;17.974;2023-03-24T09:33:49;99018.56;;;9.53;76.11
71476;BME280;59286;59.274;17.974;2023-03-24T09:36:15;99019.34;;;9.54;75.90
71476;BME280;59286;59.274;17.974;2023-03-24T09:38:40;99012.59;;;9.65;75.70
71476;BME280;59286;59.274;17.974;2023-03-24T09:41:14;99008.13;;;9.77;75.25
71476;BME280;59286;59.274;17.974;2023-03-24T09:43:44;99006.81;;;9.84;74.05
71476;BME280;59286;59.274;17.974;2023-03-24T09:46:16;99000.16;;;9.98;75.25
71476;BME280;59286;59.274;17.974;2023-03-24T09:48:50;98990.22;;;10.04;73.21
71476;BME280;59286;59.274;17.974;2023-03-24T09:51:24;98988.81;;;9.94;75.23
71476;BME280;59286;59.274;17.974;2023-03-24T09:56:31;98986.00;;;9.99;74.56
71476;BME280;59286;59.274;17.974;2023-03-24T09:59:04;98977.38;;;9.87;73.09
71476;BME280;59286;59.274;17.974;2023-03-24T10:01:30;98963.63;;;9.77;73.85
71476;BME280;59286;59.274;17.974;2023-03-24T10:03:56;98971.41;;;9.86;74.13
71476;BME280;59286;59.274;17.974;2023-03-24T10:06:25;98969.94;;;9.89;74.23
71476;BME280;59286;59.274;17.974;2023-03-24T10:12:37;98956.25;;;9.67;74.84
71476;BME280;59286;59.274;17.974;2023-03-24T10:15:18;98956.34;;;9.59;75.47
71476;BME280;59286;59.274;17.974;2023-03-24T10:23:47;98949.50;;;9.54;74.91
71476;BME280;59286;59.274;17.974;2023-03-24T10:29:20;98933.03;;;9.54;75.07
71476;BME280;59286;59.274;17.974;2023-03-24T10:31:50;98935.88;;;9.49;75.76
71476;BME280;59286;59.274;17.974;2023-03-24T10:34:16;98931.16;;;9.42;76.10
71476;BME280;59286;59.274;17.974;2023-03-24T10:36:43;98922.88;;;9.40;75.47
71476;BME280;59286;59.274;17.974;2023-03-24T10:39:14;98921.59;;;9.46;76.18
71476;BME280;59286;59.274;17.974;2023-03-24T10:41:41;98904.91;;;9.39;75.60
71476;BME280;59286;59.274;17.974;2023-03-24T10:44:07;98909.38;;;9.26;75.98
71476;BME280;59286;59.274;17.974;2023-03-24T10:46:34;98908.47;;;9.10;76.39
71476;BME280;59286;59.274;17.974;2023-03-24T10:51:37;98900.31;;;8.88;76.90
71476;BME280;59286;59.274;17.974;2023-03-24T10:54:31;98912.50;;;8.96;77.36
71476;BME280;59286;59.274;17.974;2023-03-24T10:59:32;98898.97;;;8.94;77.78
71476;BME280;59286;59.274;17.974;2023-03-24T11:04:36;98887.03;;;9.05;77.92
71476;BME280;59286;59.274;17.974;2023-03-24T11:07:11;98879.44;;;9.12;77.71
71476;BME280;59286;59.274;17.974;2023-03-24T11:09:43;98867.00;;;9.33;77.37
71476;BME280;59286;59.274;17.974;2023-03-24T11:12:21;98866.03;;;9.37;76.77
71476;BME280;59286;59.274;17.974;2023-03-24T11:14:47;98863.84;;;9.39;76.54
71476;BME280;59286;59.274;17.974;2023-03-24T11:17:13;98868.31;;;9.39;76.84
71476;BME280;59286;59.274;17.974;2023-03-24T11:19:49;98861.56;;;9.38;76.22
71476;BME280;59286;59.274;17.974;2023-03-24T11:22:16;98859.25;;;9.36;75.62
71476;BME280;59286;59.274;17.974;2023-03-24T11:24:42;98852.06;;;9.21;75.33
71476;BME280;59286;59.274;17.974;2023-03-24T11:27:12;98848.81;;;9.24;76.26
71476;BME280;59286;59.274;17.974;2023-03-24T11:29:40;98841.84;;;9.28;76.16
71476;BME280;59286;59.274;17.974;2023-03-24T11:32:13;98843.59;;;9.24;76.88
71476;BME280;59286;59.274;17.974;2023-03-24T11:34:46;98829.09;;;8.91;77.04
71476;BME280;59286;59.274;17.974;2023-03-24T11:37:19;98840.28;;;8.79;77.98
71476;BME280;59286;59.274;17.974;2023-03-24T11:40:15;98830.03;;;8.62;78.81
71476;BME280;59286;59.274;17.974;2023-03-24T11:43:03;98820.41;;;8.42;80.22
71476;BME280;59286;59.274;17.974;2023-03-24T11:48:04;98824.66;;;8.14;83.42
71476;BME280;59286;59.274;17.974;2023-03-24T11:50:37;98825.25;;;7.99;84.19
71476;BME280;59286;59.274;17.974;2023-03-24T11:53:24;98814.00;;;7.86;84.82
71476;BME280;59286;59.274;17.974;2023-03-24T11:56:09;98793.00;;;7.62;86.90
71476;BME280;59286;59.274;17.974;2023-03-24T11:58:50;98786.25;;;7.40;87.90
71476;BME280;59286;59.274;17.974;2023-03-24T12:03:54;98768.53;;;7.34;91.21
71476;BME280;59286;59.274;17.974;2023-03-24T12:07:03;98763.38;;;7.25;90.99
71476;BME280;59286;59.274;17.974;2023-03-24T12:17:39;98752.03;;;7.01;93.52
71476;BME280;59286;59.274;17.974;2023-03-24T12:20:22;98732.81;;;6.84;93.89
71476;BME280;59286;59.274;17.974;2023-03-24T12:23:08;98722.91;;;6.69;94.96
71476;BME280;59286;59.274;17.974;2023-03-24T12:25:37;98725.53;;;6.69;96.31
71476;BME280;59286;59.274;17.974;2023-03-24T12:33:43;98710.31;;;6.51;97.24
71476;BME280;59286;59.274;17.974;2023-03-24T12:36:28;98697.53;;;6.37;97.73
71476;BME280;59286;59.274;17.974;2023-03-24T12:39:11;98683.63;;;6.25;97.51
71476;BME280;59286;59.274;17.974;2023-03-24T12:44:26;98657.97;;;6.15;99.60
71476;BME280;59286;59.274;17.974;2023-03-24T12:50:00;98659.78;;;6.23;99.60
71476;BME280;59286;59.274;17.974;2023-03-24T12:58:18;98640.69;;;6.19;100.00
71476;BME280;59286;59.274;17.974;2023-03-24T13:01:24;98642.38;;;6.15;100.00
71476;BME280;59286;59.274;17.974;2023-03-24T13:06:42;98623.13;;;5.99;100.00
71476;BME280;59286;59.274;17.974;2023-03-24T13:09:24;98610.78;;;5.96;99.84
71476;BME280;59286;59.274;17.974;2023-03-24T13:12:06;98603.31;;;5.85;99.85
71476;BME280;59286;59.274;17.974;2023-03-24T13:14:47;98587.41;;;5.78;100.00
71476;BME280;59286;59.274;17.974;2023-03-24T13:17:30;98587.72;;;5.85;99.91
71476;BME280;59286;59.274;17.974;2023-03-24T13:20:00;98577.50;;;5.72;100.00
71476;BME280;59286;59.274;17.974;2023-03-24T13:22:31;98573.94;;;5.76;100.00
71476;BME280;59286;59.274;17.974;2023-03-24T13:24:58;98561.31;;;5.66;100.00
71476;BME280;59286;59.274;17.974;2023-03-24T13:27:34;98545.88;;;5.61;100.00
71476;BME280;59286;59.274;17.974;2023-03-24T13:30:37;98551.97;;;5.74;100.00
71476;BME280;59286;59.274;17.974;2023-03-24T13:33:13;98542.03;;;5.76;100.00
71476;BME280;59286;59.274;17.974;2023-03-24T13:38:39;98525.22;;;5.73;100.00
71476;BME280;59286;59.274;17.974;2023-03-24T13:41:12;98513.91;;;5.69;100.00
71476;BME280;59286;59.274;17.974;2023-03-24T13:44:21;98493.91;;;5.61;100.00
71476;BME280;59286;59.274;17.974;2023-03-24T13:47:04;98477.78;;;5.47;100.00
71476;BME280;59286;59.274;17.974;2023-03-24T13:49:31;98473.81;;;5.50;100.00
71476;BME280;59286;59.274;17.974;2023-03-24T13:52:01;98462.19;;;5.47;100.00
71476;BME280;59286;59.274;17.974;2023-03-24T13:54:27;98446.47;;;5.44;100.00
71476;BME280;59286;59.274;17.974;2023-03-24T14:02:51;98424.00;;;5.39;100.00
71476;BME280;59286;59.274;17.974;2023-03-24T14:17:55;98363.56;;;5.30;100.00
71476;BME280;59286;59.274;17.974;2023-03-24T14:20:27;98346.19;;;5.22;100.00
71476;BME280;59286;59.274;17.974;2023-03-24T14:22:56;98338.97;;;5.28;100.00
71476;BME280;59286;59.274;17.974;2023-03-24T14:25:25;98323.72;;;5.26;100.00
71476;BME280;59286;59.274;17.974;2023-03-24T14:28:05;98311.81;;;5.25;100.00
71476;BME280;59286;59.274;17.974;2023-03-24T14:30:32;98309.59;;;5.36;100.00
71476;BME280;59286;59.274;17.974;2023-03-24T14:33:02;98294.78;;;5.36;100.00
71476;BME280;59286;59.274;17.974;2023-03-24T14:35:44;98293.09;;;5.40;100.00
71476;BME280;59286;59.274;17.974;2023-03-24T14:40:41;98283.63;;;5.36;100.00
71476;BME280;59286;59.274;17.974;2023-03-24T14:46:04;98275.50;;;5.37;100.00
71476;BME280;59286;59.274;17.974;2023-03-24T14:48:33;98282.72;;;5.32;100.00
71476;BME280;59286;59.274;17.974;2023-03-24T14:51:42;98276.16;;;5.34;100.00
71476;BME280;59286;59.274;17.974;2023-03-24T14:54:26;98266.25;;;5.28;100.00
71476;BME280;59286;59.274;17.974;2023-03-24T14:56:53;98266.41;;;5.31;100.00
71476;BME280;59286;59.274;17.974;2023-03-24T15:01:50;98249.81;;;5.44;100.00
71476;BME280;59286;59.274;17.974;2023-03-24T15:04:19;98223.13;;;5.35;100.00
71476;BME280;59286;59.274;17.974;2023-03-24T15:06:46;98222.31;;;5.43;100.00
71476;BME280;59286;59.274;17.974;2023-03-24T15:09:15;98212.56;;;5.40;100.00
71476;BME280;59286;59.274;17.974;2023-03-24T15:11:42;98196.53;;;5.38;100.00
71476;BME280;59286;59.274;17.974;2023-03-24T15:14:24;98206.84;;;5.47;100.00
71476;BME280;59286;59.274;17.974;2023-03-24T15:16:59;98180.97;;;5.50;100.00
71476;BME280;59286;59.274;17.974;2023-03-24T15:19:28;98189.22;;;5.52;100.00
71476;BME280;59286;59.274;17.974;2023-03-24T15:22:04;98163.88;;;5.49;100.00
71476;BME280;59286;59.274;17.974;2023-03-24T15:24:35;98159.47;;;5.50;100.00